Time;durP1;ratioP1;P1;durP2;ratioP2;P2;SDS_P1;SDS_P2;PMS_P1;PMS_P2;Temp;Humidity;BMP_temperature;BMP_pressure;BME280_temperature;BME280_humidity;BME280_pressure;Samples;Min_cycle;Max_cycle;Signal;HPM_P1;HPM_P2
2022/05/30 04:24:29;;;;;;;0.55;0.55;;;;;;;-145.06;0.00;60892.56;5943480;23;20028;-91
2022/05/30 04:30:45;;;;;;;1.25;0.50;;;;;;;-145.06;0.00;60892.56;5938244;23;20037;-91
2022/05/30 04:33:33;;;;;;;0.70;0.50;;;;;;;-145.06;0.00;60892.56;5922325;23;20082;-91
2022/05/30 04:37:03;;;;;;;0.40;0.40;;;;;;;-145.06;0.00;60892.56;5894467;23;20002;-90
2022/05/30 04:40:19;;;;;;;1.42;0.40;;;;;;;-145.06;0.00;60892.56;5810689;23;20008;-93
2022/05/30 04:43:32;;;;;;;0.70;0.40;;;;;;;-145.06;0.00;60892.56;5820631;23;20035;-90
2022/05/30 04:46:16;;;;;;;1.00;0.60;;;;;;;-145.06;0.00;60892.56;5830482;23;20006;-90
2022/05/30 04:49:21;;;;;;;0.73;0.50;;;;;;;-145.06;0.00;60892.56;5843666;23;20035;-92
2022/05/30 04:52:03;;;;;;;2.03;0.80;;;;;;;-145.06;0.00;60892.56;5943782;23;20009;-91
2022/05/30 04:54:47;;;;;;;1.13;0.70;;;;;;;-145.06;0.00;60892.56;5921204;23;20006;-90
2022/05/30 04:57:31;;;;;;;0.60;0.50;;;;;;;-145.06;0.00;60892.56;5921736;23;20009;-92
2022/05/30 05:00:18;;;;;;;1.63;0.75;;;;;;;-145.06;0.00;60892.56;5921347;23;20006;-91
2022/05/30 05:03:02;;;;;;;0.63;0.47;;;;;;;-145.06;0.00;60892.56;5921310;23;20009;-91
2022/05/30 05:05:44;;;;;;;1.50;0.70;;;;;;;-145.06;0.00;60892.56;5921666;23;20009;-91
2022/05/30 05:08:56;;;;;;;0.50;0.50;;;;;;;-145.06;0.00;60892.56;5921468;23;20092;-90
2022/05/30 13:05:56;;;;;;;0.65;0.40;;;;;;;-145.06;0.00;60892.56;5947130;23;20017;-89
2022/05/30 13:38:35;;;;;;;0.93;0.50;;;;;;;-145.06;0.00;60892.56;5780829;24;20048;-92
2022/05/30 13:48:09;;;;;;;0.47;0.30;;;;;;;-145.06;0.00;60892.56;5945846;23;20024;-89
2022/05/30 13:55:22;;;;;;;0.82;0.35;;;;;;;-145.06;0.00;60892.56;5943120;23;20328;-91
2022/05/30 13:58:44;;;;;;;0.28;0.28;;;;;;;-145.06;0.00;60892.56;5946977;23;20024;-91
2022/05/30 14:01:34;;;;;;;0.50;0.30;;;;;;;-145.06;0.00;60892.56;5946547;23;20431;-89
2022/05/30 14:08:54;;;;;;;0.40;0.30;;;;;;;-145.06;0.00;60892.56;6008029;23;20438;-91
2022/05/30 14:12:18;;;;;;;0.25;0.20;;;;;;;-145.06;0.00;60892.56;5998896;23;20072;-91
2022/05/30 14:33:26;;;;;;;0.65;0.40;;;;;;;-145.06;0.00;60892.56;6007868;23;20035;-89
2022/05/30 14:36:51;;;;;;;0.50;0.30;;;;;;;-145.06;0.00;60892.56;5976072;23;20000;-90
2022/05/30 14:39:51;;;;;;;0.43;0.25;;;;;;;-145.06;0.00;60892.56;5853091;23;20002;-90
2022/05/30 14:46:30;;;;;;;0.50;0.17;;;;;;;-145.06;0.00;60892.56;5863332;23;20007;-90
2022/05/30 14:49:15;;;;;;;0.30;0.25;;;;;;;-145.06;0.00;60892.56;5833058;23;20307;-90
2022/05/30 14:52:03;;;;;;;0.77;0.30;;;;;;;-145.06;0.00;60892.56;5976184;23;20498;-90
2022/05/30 14:54:42;;;;;;;0.35;0.35;;;;;;;-145.06;0.00;60892.56;6011569;23;20008;-91
2022/05/30 14:57:26;;;;;;;0.32;0.30;;;;;;;-145.06;0.00;60892.56;5979550;23;20013;-90
2022/05/30 15:00:29;;;;;;;0.75;0.25;;;;;;;-145.06;0.00;60892.56;5977890;23;20008;-90
2022/05/30 15:06:37;;;;;;;0.40;0.30;;;;;;;-145.06;0.00;60892.56;6007571;23;20008;-91
2022/05/30 15:09:28;;;;;;;0.85;0.43;;;;;;;-145.06;0.00;60892.56;5975981;23;20308;-91
2022/05/30 15:12:09;;;;;;;0.45;0.30;;;;;;;-145.06;0.00;60892.56;5976225;23;20036;-89
2022/05/30 15:14:51;;;;;;;1.00;0.40;;;;;;;-145.06;0.00;60892.56;5974632;23;20004;-91
2022/05/30 15:18:03;;;;;;;;;;;;;;;;;;;;;
2022/05/30 15:24:38;;;;;;;0.63;0.30;;;;;;;-145.06;0.00;60892.56;5918345;23;20001;-89
2022/05/30 15:27:40;;;;;;;0.38;0.25;;;;;;;-145.06;0.00;60892.56;5909464;23;20326;-92
2022/05/30 15:30:41;;;;;;;;;;;;;;;;;;;;;
2022/05/30 15:33:53;;;;;;;;;;;;;;;;;;;;;
2022/05/30 15:37:15;;;;;;;;;;;;;;;;;;;;;
2022/05/30 15:40:00;;;;;;;0.40;0.20;;;;;;;-145.06;0.00;60892.56;6005912;23;20005;-92
